Time,TemperatureF,DewpointF,PressureIn,WindDirection,WindDirectionDegrees,WindSpeedMPH,WindSpeedGustMPH,Humidity,HourlyPrecipIn,Conditions,Clouds,dailyrainin,SoftwareType,DateUTC
2013-03-09 00:03:00,40.9,37.0,29.94,West,260,1.0,1.0,86,0.00,,---,0.00,VWS V14.01,2013-03-09 07:03:00,
2013-03-09 00:08:00,41.0,37.1,29.94,West,266,2.0,2.0,86,0.00,,---,0.00,VWS V14.01,2013-03-09 07:08:00,
2013-03-09 00:13:00,41.2,37.3,29.94,WSW,250,0.0,2.0,86,0.00,,---,0.00,VWS V14.01,2013-03-09 07:13:00,
2013-03-09 00:19:00,41.4,37.2,29.94,SW,233,1.0,3.0,85,0.00,,---,0.00,VWS V14.01,2013-03-09 07:19:00,
2013-03-09 00:24:00,41.6,37.1,29.95,WSW,248,0.0,3.0,84,0.00,,---,0.00,VWS V14.01,2013-03-09 07:24:00,
2013-03-09 00:29:00,41.7,37.2,29.95,WSW,253,0.0,4.0,84,0.00,,---,0.00,VWS V14.01,2013-03-09 07:29:00,
2013-03-09 00:34:00,41.8,37.0,29.95,WSW,247,1.0,2.0,83,0.00,,---,0.00,VWS V14.01,2013-03-09 07:34:00,
2013-03-09 00:39:00,42.0,37.2,29.95,WSW,250,1.0,2.0,83,0.00,,---,0.00,VWS V14.01,2013-03-09 07:39:00,
2013-03-09 00:44:00,41.9,37.4,29.95,SW,233,1.0,2.0,84,0.00,,---,0.00,VWS V14.01,2013-03-09 07:44:00,
2013-03-09 00:49:00,42.0,37.2,29.95,SW,221,1.0,2.0,83,0.00,,---,0.00,VWS V14.01,2013-03-09 07:49:00,
2013-03-09 00:54:00,42.2,37.1,29.95,SW,228,2.0,3.0,82,0.00,,---,0.00,VWS V14.01,2013-03-09 07:54:00,
2013-03-09 00:59:00,42.3,36.9,29.96,SSW,210,1.0,3.0,81,0.00,,---,0.00,VWS V14.01,2013-03-09 07:59:00,
2013-03-09 01:04:00,42.5,36.5,29.96,WSW,242,2.0,4.0,79,0.00,,---,0.00,VWS V14.01,2013-03-09 08:04:00,
2013-03-09 01:09:00,42.6,36.5,29.96,SW,229,0.0,4.0,79,0.00,,---,0.00,VWS V14.01,2013-03-09 08:09:00,
2013-03-09 01:14:00,42.6,36.5,29.96,SW,217,0.0,4.0,79,0.00,,---,0.00,VWS V14.01,2013-03-09 08:14:00,
2013-03-09 01:19:00,42.5,36.5,29.96,SSW,204,3.0,4.0,79,0.00,,---,0.00,VWS V14.01,2013-03-09 08:19:00,
2013-03-09 01:24:00,42.6,36.5,29.96,WSW,238,5.0,5.0,79,0.00,,---,0.00,VWS V14.01,2013-03-09 08:24:00,
2013-03-09 01:29:00,42.7,36.3,29.96,SW,228,1.0,5.0,78,0.00,,---,0.00,VWS V14.01,2013-03-09 08:29:00,
2013-03-09 01:35:00,42.7,36.3,29.96,SW,232,2.0,2.0,78,0.00,,---,0.00,VWS V14.01,2013-03-09 08:35:00,
2013-03-09 01:40:00,42.7,36.3,29.96,SW,218,2.0,3.0,78,0.00,,---,0.00,VWS V14.01,2013-03-09 08:40:00,
2013-03-09 01:45:00,42.8,36.4,29.95,WSW,253,4.0,4.0,78,0.00,,---,0.00,VWS V14.01,2013-03-09 08:45:00,
2013-03-09 01:50:00,42.8,36.4,29.96,WSW,249,2.0,4.0,78,0.00,,---,0.00,VWS V14.01,2013-03-09 08:50:00,
2013-03-09 01:55:00,42.9,36.2,29.95,SW,216,0.0,4.0,77,0.00,,---,0.00,VWS V14.01,2013-03-09 08:55:00,
2013-03-09 02:00:00,42.9,35.9,29.95,WSW,245,2.0,4.0,76,0.00,,---,0.00,VWS V14.01,2013-03-09 09:00:00,
2013-03-09 02:05:00,43.0,35.6,29.95,SW,221,3.0,4.0,75,0.00,,---,0.00,VWS V14.01,2013-03-09 09:05:00,
2013-03-09 02:10:00,43.1,35.7,29.95,WSW,249,2.0,6.0,75,0.00,,---,0.00,VWS V14.01,2013-03-09 09:10:00,
2013-03-09 02:15:00,43.2,35.8,29.95,WSW,242,3.0,6.0,75,0.00,,---,0.00,VWS V14.01,2013-03-09 09:15:00,
2013-03-09 02:20:00,43.2,35.8,29.95,WSW,249,3.0,6.0,75,0.00,,---,0.00,VWS V14.01,2013-03-09 09:20:00,
2013-03-09 02:25:00,43.1,35.7,29.95,WSW,246,3.0,6.0,75,0.00,,---,0.00,VWS V14.01,2013-03-09 09:25:00,
2013-03-09 02:30:00,43.1,35.7,29.95,WSW,246,2.0,6.0,75,0.00,,---,0.00,VWS V14.01,2013-03-09 09:30:00,
2013-03-09 02:35:00,43.1,36.1,29.95,WSW,257,1.0,3.0,76,0.00,,---,0.00,VWS V14.01,2013-03-09 09:35:00,
2013-03-09 02:40:00,43.0,36.3,29.95,WSW,250,2.0,7.0,77,0.00,,---,0.00,VWS V14.01,2013-03-09 09:40:00,
2013-03-09 02:45:00,42.7,36.7,29.94,SW,226,3.0,7.0,79,0.01,,---,0.01,VWS V14.01,2013-03-09 09:45:00,
2013-03-09 02:51:00,42.3,36.9,29.94,SW,228,1.0,7.0,81,0.01,,---,0.01,VWS V14.01,2013-03-09 09:51:00,
2013-03-09 02:56:00,42.0,36.9,29.94,WSW,239,1.0,7.0,82,0.01,,---,0.01,VWS V14.01,2013-03-09 09:56:00,
2013-03-09 03:01:00,42.1,35.8,29.94,SSE,167,1.0,7.0,78,0.01,,---,0.01,VWS V14.01,2013-03-09 10:01:00,
2013-03-09 03:06:00,42.1,37.0,29.95,SSW,205,0.0,2.0,82,0.01,,---,0.01,VWS V14.01,2013-03-09 10:06:00,
2013-03-09 03:11:00,41.9,36.8,29.94,WSW,239,2.0,3.0,82,0.01,,---,0.01,VWS V14.01,2013-03-09 10:11:00,
2013-03-09 03:16:00,42.0,36.6,29.95,SW,229,1.0,4.0,81,0.01,,---,0.01,VWS V14.01,2013-03-09 10:16:00,
2013-03-09 03:21:00,42.0,36.9,29.95,WSW,250,4.0,4.0,82,0.01,,---,0.01,VWS V14.01,2013-03-09 10:21:00,
2013-03-09 03:26:00,42.0,36.9,29.96,WSW,255,8.0,11.0,82,0.01,,---,0.01,VWS V14.01,2013-03-09 10:26:00,
2013-03-09 03:31:00,41.0,36.2,29.96,WSW,257,10.0,13.0,83,0.01,,---,0.01,VWS V14.01,2013-03-09 10:31:00,
2013-03-09 03:36:00,40.5,36.0,29.95,West,262,4.0,8.0,84,0.01,,---,0.01,VWS V14.01,2013-03-09 10:36:00,
2013-03-09 03:41:00,40.2,36.3,29.95,West,281,3.0,8.0,86,0.01,,---,0.01,VWS V14.01,2013-03-09 10:41:00,
2013-03-09 03:46:00,40.1,36.3,29.95,West,276,3.0,8.0,86,0.01,,---,0.01,VWS V14.01,2013-03-09 10:46:00,
2013-03-09 03:51:00,40.1,36.5,29.95,WSW,250,2.0,8.0,87,0.01,,---,0.01,VWS V14.01,2013-03-09 10:51:00,
2013-03-09 03:56:00,40.3,37.0,29.95,WSW,245,4.0,9.0,88,0.01,,---,0.01,VWS V14.01,2013-03-09 10:56:00,
2013-03-09 04:01:00,40.4,37.1,29.95,West,267,1.0,9.0,88,0.01,,---,0.01,VWS V14.01,2013-03-09 11:01:00,
2013-03-09 04:06:00,40.6,37.3,29.95,West,271,4.0,5.0,88,0.00,,---,0.01,VWS V14.01,2013-03-09 11:06:00,
2013-03-09 04:12:00,40.6,37.3,29.96,West,274,7.0,9.0,88,0.00,,---,0.01,VWS V14.01,2013-03-09 11:12:00,
2013-03-09 04:17:00,40.3,37.3,29.96,West,280,8.0,12.0,89,0.01,,---,0.02,VWS V14.01,2013-03-09 11:17:00,
2013-03-09 04:22:00,40.0,37.0,29.96,West,268,9.0,12.0,89,0.01,,---,0.02,VWS V14.01,2013-03-09 11:22:00,
2013-03-09 04:27:00,39.8,37.1,29.96,WSW,249,5.0,12.0,90,0.01,,---,0.02,VWS V14.01,2013-03-09 11:27:00,
2013-03-09 04:32:00,39.7,37.0,29.96,West,276,3.0,12.0,90,0.01,,---,0.02,VWS V14.01,2013-03-09 11:32:00,
2013-03-09 04:37:00,39.6,36.9,29.96,West,278,3.0,6.0,90,0.01,,---,0.02,VWS V14.01,2013-03-09 11:37:00,
2013-03-09 04:42:00,39.7,37.0,29.96,WSW,256,0.0,6.0,90,0.01,,---,0.02,VWS V14.01,2013-03-09 11:42:00,
2013-03-09 04:47:00,39.6,36.9,29.97,SSE,165,1.0,6.0,90,0.01,,---,0.02,VWS V14.01,2013-03-09 11:47:00,
2013-03-09 04:52:00,39.7,37.3,29.97,WSW,257,1.0,6.0,91,0.02,,---,0.03,VWS V14.01,2013-03-09 11:52:00,
2013-03-09 04:57:00,39.7,37.3,29.97,SW,221,4.0,9.0,91,0.02,,---,0.03,VWS V14.01,2013-03-09 11:57:00,
2013-03-09 05:02:00,39.2,36.5,29.98,WSW,256,1.0,9.0,90,0.04,,---,0.05,VWS V14.01,2013-03-09 12:02:00,
2013-03-09 05:07:00,39.3,37.2,29.97,SW,233,1.0,6.0,92,0.05,,---,0.06,VWS V14.01,2013-03-09 12:07:00,
2013-03-09 05:12:00,39.4,37.3,29.97,SSW,197,1.0,6.0,92,0.05,,---,0.06,VWS V14.01,2013-03-09 12:12:00,
2013-03-09 05:17:00,39.5,37.4,29.97,SSE,155,0.0,6.0,92,0.05,,---,0.06,VWS V14.01,2013-03-09 12:17:00,
2013-03-09 05:23:00,39.6,37.5,29.97,SSE,160,0.0,6.0,92,0.05,,---,0.06,VWS V14.01,2013-03-09 12:23:00,
2013-03-09 05:28:00,39.6,37.5,29.98,SSW,210,0.0,6.0,92,0.05,,---,0.06,VWS V14.01,2013-03-09 12:28:00,
2013-03-09 05:33:00,39.6,37.8,29.98,SSW,196,0.0,6.0,93,0.05,,---,0.06,VWS V14.01,2013-03-09 12:33:00,
2013-03-09 05:38:00,39.7,37.8,29.98,ESE,116,0.0,2.0,93,0.04,,---,0.06,VWS V14.01,2013-03-09 12:38:00,
2013-03-09 05:43:00,39.7,37.8,29.98,South,169,0.0,2.0,93,0.04,,---,0.06,VWS V14.01,2013-03-09 12:43:00,
2013-03-09 05:48:00,39.7,37.8,29.99,South,169,0.0,2.0,93,0.04,,---,0.06,VWS V14.01,2013-03-09 12:48:00,
2013-03-09 05:53:00,39.7,37.8,29.98,SSE,168,0.0,2.0,93,0.04,,---,0.06,VWS V14.01,2013-03-09 12:53:00,
2013-03-09 05:58:00,39.7,37.8,29.99,SSE,167,0.0,2.0,93,0.04,,---,0.06,VWS V14.01,2013-03-09 12:58:00,
2013-03-09 06:03:00,39.7,37.8,29.98,SSW,200,0.0,0.0,93,0.01,,---,0.06,VWS V14.01,2013-03-09 13:03:00,
2013-03-09 06:08:00,39.8,38.0,29.99,SW,225,2.0,2.0,93,0.01,,---,0.06,VWS V14.01,2013-03-09 13:08:00,
2013-03-09 06:14:00,39.8,38.0,29.99,SW,224,0.0,2.0,93,0.01,,---,0.06,VWS V14.01,2013-03-09 13:14:00,
2013-03-09 06:19:00,39.8,38.0,29.99,WSW,240,0.0,2.0,93,0.01,,---,0.06,VWS V14.01,2013-03-09 13:19:00,
2013-03-09 06:24:00,39.8,37.7,29.99,WSW,249,0.0,2.0,92,0.01,,---,0.06,VWS V14.01,2013-03-09 13:24:00,
2013-03-09 06:29:00,39.9,38.0,29.99,WSW,249,0.0,2.0,93,0.01,,---,0.06,VWS V14.01,2013-03-09 13:29:00,
2013-03-09 06:34:00,39.9,37.8,29.99,SSE,158,0.0,0.0,92,0.00,,---,0.06,VWS V14.01,2013-03-09 13:34:00,
2013-03-09 06:39:00,39.9,37.8,29.99,SW,214,1.0,1.0,92,0.00,,---,0.06,VWS V14.01,2013-03-09 13:39:00,
2013-03-09 06:44:00,39.8,37.7,29.99,ESE,108,0.0,2.0,92,0.00,,---,0.06,VWS V14.01,2013-03-09 13:44:00,
2013-03-09 06:49:00,39.9,37.5,30.00,SSW,210,0.0,2.0,91,0.00,,---,0.06,VWS V14.01,2013-03-09 13:49:00,
2013-03-09 06:54:00,40.0,37.3,30.00,SSW,203,0.0,2.0,90,0.00,,---,0.06,VWS V14.01,2013-03-09 13:54:00,
2013-03-09 06:59:00,40.0,37.0,30.00,SSW,203,0.0,2.0,89,0.00,,---,0.06,VWS V14.01,2013-03-09 13:59:00,
2013-03-09 07:04:00,40.0,37.0,29.99,South,170,2.0,3.0,89,0.00,,---,0.06,VWS V14.01,2013-03-09 14:04:00,
2013-03-09 07:09:00,40.2,36.9,30.00,SSE,163,2.0,4.0,88,0.00,,---,0.06,VWS V14.01,2013-03-09 14:09:00,
2013-03-09 07:15:00,40.3,37.3,30.00,South,184,0.0,4.0,89,0.00,,---,0.06,VWS V14.01,2013-03-09 14:15:00,
2013-03-09 07:20:00,40.2,37.2,30.00,SSE,163,0.0,4.0,89,0.00,,---,0.06,VWS V14.01,2013-03-09 14:20:00,
2013-03-09 07:24:00,40.2,37.2,30.00,SSE,163,0.0,4.0,89,0.00,,---,0.06,VWS V14.01,2013-03-09 14:24:00,
2013-03-09 07:30:00,40.2,36.9,30.01,SSW,198,1.0,4.0,88,0.00,,---,0.06,VWS V14.01,2013-03-09 14:30:00,
2013-03-09 07:35:00,40.4,37.4,30.01,SSW,198,0.0,0.0,89,0.00,,---,0.06,VWS V14.01,2013-03-09 14:35:00,
2013-03-09 07:40:00,40.7,37.4,30.01,SSW,198,0.0,0.0,88,0.00,,---,0.06,VWS V14.01,2013-03-09 14:40:00,
2013-03-09 07:45:00,41.1,37.8,30.01,WSW,239,1.0,1.0,88,0.00,,---,0.06,VWS V14.01,2013-03-09 14:45:00,
2013-03-09 07:50:00,41.5,37.9,30.01,SSW,212,0.0,1.0,87,0.00,,---,0.06,VWS V14.01,2013-03-09 14:50:00,
2013-03-09 07:55:00,41.8,38.2,30.01,WSW,237,0.0,1.0,87,0.00,,---,0.06,VWS V14.01,2013-03-09 14:55:00,
2013-03-09 08:00:00,42.0,37.5,30.02,SSW,205,0.0,2.0,84,0.00,,---,0.06,VWS V14.01,2013-03-09 15:00:00,
2013-03-09 08:05:00,42.4,37.6,30.02,SSE,148,0.0,2.0,83,0.00,,---,0.06,VWS V14.01,2013-03-09 15:05:00,
2013-03-09 08:10:00,42.4,37.0,30.02,WSW,245,0.0,2.0,81,0.00,,---,0.06,VWS V14.01,2013-03-09 15:10:00,
2013-03-09 08:15:00,42.4,37.9,30.02,WSW,255,0.0,2.0,84,0.00,,---,0.06,VWS V14.01,2013-03-09 15:15:00,
2013-03-09 08:20:00,42.4,37.6,30.02,SSW,194,0.0,2.0,83,0.00,,---,0.06,VWS V14.01,2013-03-09 15:20:00,
2013-03-09 08:25:00,42.4,37.3,30.03,WSW,257,2.0,3.0,82,0.00,,---,0.06,VWS V14.01,2013-03-09 15:25:00,
2013-03-09 08:30:00,42.4,37.9,30.03,SW,233,1.0,3.0,84,0.00,,---,0.06,VWS V14.01,2013-03-09 15:30:00,
2013-03-09 08:35:00,42.4,38.2,30.03,SW,216,1.0,2.0,85,0.00,,---,0.06,VWS V14.01,2013-03-09 15:35:00,
2013-03-09 08:40:00,42.6,37.8,30.03,SW,228,1.0,2.0,83,0.00,,---,0.06,VWS V14.01,2013-03-09 15:40:00,
2013-03-09 08:45:00,43.0,38.2,30.03,SSW,210,0.0,3.0,83,0.00,,---,0.06,VWS V14.01,2013-03-09 15:45:00,
2013-03-09 08:50:00,43.3,37.9,30.03,SSE,156,1.0,3.0,81,0.00,,---,0.06,VWS V14.01,2013-03-09 15:50:00,
2013-03-09 08:55:00,43.6,38.2,30.04,WSW,251,1.0,3.0,81,0.00,,---,0.06,VWS V14.01,2013-03-09 15:55:00,
2013-03-09 09:00:00,43.7,37.6,30.04,WSW,255,0.0,3.0,79,0.00,,---,0.06,VWS V14.01,2013-03-09 16:00:00,
2013-03-09 09:06:00,43.9,38.1,30.04,SW,224,0.0,2.0,80,0.00,,---,0.06,VWS V14.01,2013-03-09 16:06:00,
2013-03-09 09:11:00,44.3,38.2,30.04,South,186,1.0,3.0,79,0.00,,---,0.06,VWS V14.01,2013-03-09 16:11:00,
2013-03-09 09:16:00,44.2,37.5,30.04,SW,227,0.0,3.0,77,0.00,,---,0.06,VWS V14.01,2013-03-09 16:16:00,
2013-03-09 09:21:00,44.2,38.1,30.04,SW,235,0.0,4.0,79,0.00,,---,0.06,VWS V14.01,2013-03-09 16:21:00,
2013-03-09 09:26:00,44.6,38.5,30.05,South,177,1.0,4.0,79,0.00,,---,0.06,VWS V14.01,2013-03-09 16:26:00,
2013-03-09 09:31:00,44.6,37.8,30.05,SSW,207,2.0,5.0,77,0.00,,---,0.06,VWS V14.01,2013-03-09 16:31:00,
2013-03-09 09:36:00,44.6,37.5,30.05,WSW,246,4.0,4.0,76,0.00,,---,0.06,VWS V14.01,2013-03-09 16:36:00,
2013-03-09 09:41:00,44.7,37.6,30.05,SSW,205,4.0,5.0,76,0.00,,---,0.06,VWS V14.01,2013-03-09 16:41:00,
2013-03-09 09:46:00,44.9,38.1,30.05,WSW,250,0.0,5.0,77,0.00,,---,0.06,VWS V14.01,2013-03-09 16:46:00,
2013-03-09 09:51:00,45.3,37.9,30.05,WSW,240,3.0,5.0,75,0.00,,---,0.06,VWS V14.01,2013-03-09 16:51:00,
2013-03-09 09:56:00,45.3,37.5,30.05,WSW,251,1.0,5.0,74,0.00,,---,0.06,VWS V14.01,2013-03-09 16:56:00,
2013-03-09 10:01:00,45.5,38.0,30.05,SW,214,5.0,6.0,75,0.00,,---,0.06,VWS V14.01,2013-03-09 17:01:00,
2013-03-09 10:07:00,45.6,37.1,30.05,SSE,161,3.0,7.0,72,0.00,,---,0.06,VWS V14.01,2013-03-09 17:07:00,
2013-03-09 10:12:00,45.9,37.8,30.05,WSW,257,2.0,7.0,73,0.00,,---,0.06,VWS V14.01,2013-03-09 17:12:00,
2013-03-09 10:17:00,46.0,37.8,30.05,West,260,5.0,11.0,73,0.00,,---,0.06,VWS V14.01,2013-03-09 17:17:00,
2013-03-09 10:22:00,45.9,37.4,30.06,WSW,242,6.0,11.0,72,0.00,,---,0.06,VWS V14.01,2013-03-09 17:22:00,
2013-03-09 10:27:00,46.0,37.5,30.05,SW,219,6.0,12.0,72,0.00,,---,0.06,VWS V14.01,2013-03-09 17:27:00,
2013-03-09 10:32:00,46.5,38.0,30.06,SW,218,3.0,12.0,72,0.00,,---,0.06,VWS V14.01,2013-03-09 17:32:00,
2013-03-09 10:37:00,46.9,38.0,30.05,West,264,3.0,9.0,71,0.00,,---,0.06,VWS V14.01,2013-03-09 17:37:00,
2013-03-09 10:42:00,46.9,37.6,30.05,West,264,6.0,9.0,70,0.00,,---,0.06,VWS V14.01,2013-03-09 17:42:00,
2013-03-09 10:47:00,46.7,37.1,30.06,SW,228,2.0,9.0,69,0.00,,---,0.06,VWS V14.01,2013-03-09 17:47:00,
2013-03-09 10:52:00,46.4,37.2,30.05,SW,222,9.0,12.0,70,0.00,,---,0.06,VWS V14.01,2013-03-09 17:52:00,
2013-03-09 10:57:00,46.1,36.5,30.05,SSW,212,3.0,12.0,69,0.00,,---,0.06,VWS V14.01,2013-03-09 17:57:00,
2013-03-09 11:02:00,46.1,35.0,30.05,SW,224,8.0,12.0,65,0.00,,---,0.06,VWS V14.01,2013-03-09 18:02:00,
2013-03-09 11:07:00,46.0,36.4,30.05,SSW,207,3.0,9.0,69,0.00,,---,0.06,VWS V14.01,2013-03-09 18:07:00,
2013-03-09 11:12:00,45.9,34.4,30.06,WSW,255,4.0,11.0,64,0.00,,---,0.06,VWS V14.01,2013-03-09 18:12:00,
2013-03-09 11:17:00,45.9,36.3,30.05,SW,232,4.0,11.0,69,0.00,,---,0.06,VWS V14.01,2013-03-09 18:17:00,
2013-03-09 11:22:00,45.9,35.6,30.06,West,280,5.0,11.0,67,0.00,,---,0.06,VWS V14.01,2013-03-09 18:22:00,
2013-03-09 11:27:00,45.3,36.5,30.07,SSW,208,14.0,19.0,71,0.00,,---,0.06,VWS V14.01,2013-03-09 18:27:00,
2013-03-09 11:32:00,43.7,37.3,30.06,SW,226,1.0,19.0,78,0.00,,---,0.06,VWS V14.01,2013-03-09 18:32:00,
2013-03-09 11:37:00,43.3,38.5,30.06,WSW,256,3.0,5.0,83,0.00,,---,0.06,VWS V14.01,2013-03-09 18:37:00,
2013-03-09 11:43:00,43.5,38.1,30.06,WSW,245,3.0,7.0,81,0.00,,---,0.06,VWS V14.01,2013-03-09 18:43:00,
2013-03-09 11:48:00,43.7,38.6,30.07,WSW,257,4.0,12.0,82,0.00,,---,0.06,VWS V14.01,2013-03-09 18:48:00,
2013-03-09 11:53:00,43.5,38.1,30.07,WSW,245,4.0,12.0,81,0.01,,---,0.07,VWS V14.01,2013-03-09 18:53:00,
2013-03-09 11:58:00,43.3,37.9,30.06,SSW,203,4.0,12.0,81,0.01,,---,0.07,VWS V14.01,2013-03-09 18:58:00,
2013-03-09 12:03:00,43.8,38.7,30.06,WSW,257,3.0,12.0,82,0.01,,---,0.07,VWS V14.01,2013-03-09 19:03:00,
2013-03-09 12:08:00,44.7,38.9,30.06,SW,233,3.0,5.0,80,0.01,,---,0.07,VWS V14.01,2013-03-09 19:08:00,
2013-03-09 12:13:00,45.3,38.5,30.06,West,276,3.0,10.0,77,0.01,,---,0.07,VWS V14.01,2013-03-09 19:13:00,
2013-03-09 12:18:00,45.3,37.2,30.06,West,269,2.0,10.0,73,0.01,,---,0.07,VWS V14.01,2013-03-09 19:18:00,
2013-03-09 12:23:00,45.9,38.1,30.06,WNW,285,1.0,10.0,74,0.01,,---,0.07,VWS V14.01,2013-03-09 19:23:00,
2013-03-09 12:28:00,46.3,38.5,30.06,West,278,5.0,10.0,74,0.01,,---,0.07,VWS V14.01,2013-03-09 19:28:00,
2013-03-09 12:33:00,46.4,37.9,30.06,WSW,255,4.0,4.0,72,0.01,,---,0.07,VWS V14.01,2013-03-09 19:33:00,
2013-03-09 12:38:00,46.6,37.3,30.06,West,273,6.0,9.0,70,0.01,,---,0.07,VWS V14.01,2013-03-09 19:38:00,
2013-03-09 12:43:00,46.4,37.2,30.06,West,262,5.0,9.0,70,0.01,,---,0.07,VWS V14.01,2013-03-09 19:43:00,
2013-03-09 12:48:00,46.3,37.1,30.06,West,280,7.0,9.0,70,0.01,,---,0.07,VWS V14.01,2013-03-09 19:48:00,
2013-03-09 12:53:00,46.4,37.2,30.06,SW,218,2.0,9.0,70,0.01,,---,0.07,VWS V14.01,2013-03-09 19:53:00,
2013-03-09 12:58:00,46.6,36.6,30.06,WSW,250,3.0,9.0,68,0.01,,---,0.07,VWS V14.01,2013-03-09 19:58:00,
2013-03-09 13:03:00,46.7,36.0,30.06,West,263,4.0,4.0,66,0.00,,---,0.07,VWS V14.01,2013-03-09 20:03:00,
2013-03-09 13:09:00,46.8,36.0,30.06,WSW,250,5.0,8.0,66,0.00,,---,0.07,VWS V14.01,2013-03-09 20:09:00,
2013-03-09 13:14:00,46.9,36.2,30.06,WSW,256,3.0,8.0,66,0.00,,---,0.07,VWS V14.01,2013-03-09 20:14:00,
2013-03-09 13:19:00,47.2,36.4,30.05,West,274,4.0,8.0,66,0.00,,---,0.07,VWS V14.01,2013-03-09 20:19:00,
2013-03-09 13:24:00,47.4,36.2,30.05,NW,315,1.0,8.0,65,0.00,,---,0.07,VWS V14.01,2013-03-09 20:24:00,
2013-03-09 13:29:00,47.5,35.9,30.05,SW,225,0.0,8.0,64,0.00,,---,0.07,VWS V14.01,2013-03-09 20:29:00,
2013-03-09 13:34:00,47.3,36.2,30.05,West,262,1.0,3.0,65,0.00,,---,0.07,VWS V14.01,2013-03-09 20:34:00,
2013-03-09 13:39:00,47.7,37.3,30.05,WSW,252,5.0,5.0,67,0.00,,---,0.07,VWS V14.01,2013-03-09 20:39:00,
2013-03-09 13:44:00,48.3,37.1,30.04,WSW,252,3.0,5.0,65,0.00,,---,0.07,VWS V14.01,2013-03-09 20:44:00,
2013-03-09 13:49:00,49.3,36.4,30.04,SW,226,2.0,6.0,61,0.00,,---,0.07,VWS V14.01,2013-03-09 20:49:00,
2013-03-09 13:54:00,49.2,37.2,30.04,WSW,257,1.0,10.0,63,0.00,,---,0.07,VWS V14.01,2013-03-09 20:54:00,
2013-03-09 13:59:00,49.9,36.6,30.04,SSW,204,2.0,10.0,60,0.00,,---,0.07,VWS V14.01,2013-03-09 20:59:00,
2013-03-09 14:04:00,50.4,37.0,30.03,WSW,258,4.0,4.0,60,0.00,,---,0.07,VWS V14.01,2013-03-09 21:04:00,
2013-03-09 14:09:00,50.6,36.8,30.03,SSW,205,6.0,10.0,59,0.00,,---,0.07,VWS V14.01,2013-03-09 21:09:00,
2013-03-09 14:14:00,50.8,37.0,30.03,WSW,252,6.0,10.0,59,0.00,,---,0.07,VWS V14.01,2013-03-09 21:14:00,
2013-03-09 14:19:00,51.2,36.1,30.03,WSW,252,3.0,10.0,56,0.00,,---,0.07,VWS V14.01,2013-03-09 21:19:00,
2013-03-09 14:25:00,50.6,35.0,30.03,SW,219,8.0,11.0,55,0.00,,---,0.07,VWS V14.01,2013-03-09 21:25:00,
2013-03-09 14:30:00,50.3,35.2,30.03,WSW,257,5.0,11.0,56,0.00,,---,0.07,VWS V14.01,2013-03-09 21:30:00,
2013-03-09 14:35:00,49.9,35.7,30.03,WSW,248,3.0,6.0,58,0.00,,---,0.07,VWS V14.01,2013-03-09 21:35:00,
2013-03-09 14:40:00,49.9,35.7,30.03,WSW,246,4.0,9.0,58,0.00,,---,0.07,VWS V14.01,2013-03-09 21:40:00,
2013-03-09 14:45:00,49.9,34.8,30.03,WSW,250,3.0,9.0,56,0.00,,---,0.07,VWS V14.01,2013-03-09 21:45:00,
2013-03-09 14:50:00,49.4,36.1,30.03,WSW,247,4.0,9.0,60,0.00,,---,0.07,VWS V14.01,2013-03-09 21:50:00,
2013-03-09 14:55:00,49.2,37.2,30.04,WSW,252,1.0,9.0,63,0.00,,---,0.07,VWS V14.01,2013-03-09 21:55:00,
2013-03-09 15:00:00,48.8,36.4,30.04,WSW,258,3.0,9.0,62,0.00,,---,0.07,VWS V14.01,2013-03-09 22:00:00,
2013-03-09 15:05:00,48.7,37.5,30.04,West,271,3.0,7.0,65,0.00,,---,0.07,VWS V14.01,2013-03-09 22:05:00,
2013-03-09 15:10:00,48.5,36.9,30.04,WSW,238,8.0,8.0,64,0.00,,---,0.07,VWS V14.01,2013-03-09 22:10:00,
2013-03-09 15:15:00,48.2,36.6,30.05,WSW,248,5.0,11.0,64,0.00,,---,0.07,VWS V14.01,2013-03-09 22:15:00,
2013-03-09 15:20:00,47.7,36.1,30.05,WNW,291,4.0,11.0,64,0.00,,---,0.07,VWS V14.01,2013-03-09 22:20:00,
2013-03-09 15:25:00,47.6,37.2,30.05,West,273,5.0,11.0,67,0.00,,---,0.07,VWS V14.01,2013-03-09 22:25:00,
2013-03-09 15:30:00,47.5,37.1,30.05,SW,227,1.0,11.0,67,0.00,,---,0.07,VWS V14.01,2013-03-09 22:30:00,
2013-03-09 15:35:00,47.5,37.8,30.05,SW,228,5.0,6.0,69,0.00,,---,0.07,VWS V14.01,2013-03-09 22:35:00,
2013-03-09 15:41:00,47.0,38.8,30.05,West,263,2.0,7.0,73,0.00,,---,0.07,VWS V14.01,2013-03-09 22:41:00,
2013-03-09 15:46:00,47.0,38.1,30.05,SSW,208,1.0,7.0,71,0.00,,---,0.07,VWS V14.01,2013-03-09 22:46:00,
2013-03-09 15:51:00,47.3,37.7,30.05,WSW,251,1.0,7.0,69,0.00,,---,0.07,VWS V14.01,2013-03-09 22:51:00,
2013-03-09 15:56:00,47.6,38.3,30.05,West,259,0.0,7.0,70,0.00,,---,0.07,VWS V14.01,2013-03-09 22:56:00,
2013-03-09 16:01:00,48.2,38.2,30.05,SE,124,0.0,7.0,68,0.00,,---,0.07,VWS V14.01,2013-03-09 23:01:00,
2013-03-09 16:06:00,49.1,37.9,30.05,ENE,77,0.0,2.0,65,0.00,,---,0.07,VWS V14.01,2013-03-09 23:06:00,
2013-03-09 16:11:00,49.5,38.2,30.05,South,169,0.0,2.0,65,0.00,,---,0.07,VWS V14.01,2013-03-09 23:11:00,
2013-03-09 16:16:00,50.8,38.7,30.05,East,79,0.0,2.0,63,0.00,,---,0.07,VWS V14.01,2013-03-09 23:16:00,
2013-03-09 16:21:00,51.1,39.0,30.05,SE,142,0.0,3.0,63,0.00,,---,0.07,VWS V14.01,2013-03-09 23:21:00,
2013-03-09 16:26:00,51.1,39.0,30.05,ESE,111,0.0,3.0,63,0.00,,---,0.07,VWS V14.01,2013-03-09 23:26:00,
2013-03-09 16:32:00,50.5,36.7,30.05,ESE,104,0.0,3.0,59,0.00,,---,0.07,VWS V14.01,2013-03-09 23:32:00,
2013-03-09 16:37:00,49.9,37.0,30.05,North,11,0.0,0.0,61,0.00,,---,0.07,VWS V14.01,2013-03-09 23:37:00,
2013-03-09 16:42:00,49.4,36.9,30.06,NE,53,0.0,0.0,62,0.00,,---,0.07,VWS V14.01,2013-03-09 23:42:00,
2013-03-09 16:47:00,49.1,37.1,30.06,ENE,60,0.0,0.0,63,0.00,,---,0.07,VWS V14.01,2013-03-09 23:47:00,
2013-03-09 16:52:00,49.0,37.0,30.06,SE,126,0.0,0.0,63,0.00,,---,0.07,VWS V14.01,2013-03-09 23:52:00,
2013-03-09 16:57:00,48.9,36.9,30.06,SE,131,0.0,0.0,63,0.00,,---,0.07,VWS V14.01,2013-03-09 23:57:00,
2013-03-09 17:02:00,48.9,36.9,30.06,ESE,115,0.0,0.0,63,0.00,,---,0.07,VWS V14.01,2013-03-10 00:02:00,
2013-03-09 17:07:00,49.1,37.1,30.06,ESE,115,0.0,0.0,63,0.00,,---,0.07,VWS V14.01,2013-03-10 00:07:00,
2013-03-09 17:13:00,49.2,37.2,30.06,SE,134,0.0,0.0,63,0.00,,---,0.07,VWS V14.01,2013-03-10 00:13:00,
2013-03-09 17:18:00,49.0,36.6,30.06,WSW,252,0.0,0.0,62,0.00,,---,0.07,VWS V14.01,2013-03-10 00:18:00,
2013-03-09 17:23:00,48.9,36.9,30.06,SW,235,0.0,0.0,63,0.00,,---,0.07,VWS V14.01,2013-03-10 00:23:00,
2013-03-09 17:28:00,49.1,37.1,30.06,WSW,253,0.0,0.0,63,0.00,,---,0.07,VWS V14.01,2013-03-10 00:28:00,
2013-03-09 17:33:00,49.9,37.4,30.07,WSW,257,0.0,0.0,62,0.00,,---,0.07,VWS V14.01,2013-03-10 00:33:00,
2013-03-09 17:38:00,50.0,36.2,30.07,West,263,0.0,0.0,59,0.00,,---,0.07,VWS V14.01,2013-03-10 00:38:00,
2013-03-09 17:43:00,49.9,35.7,30.07,West,269,0.0,0.0,58,0.00,,---,0.07,VWS V14.01,2013-03-10 00:43:00,
2013-03-09 17:48:00,49.7,35.5,30.07,NNE,24,2.0,2.0,58,0.00,,---,0.07,VWS V14.01,2013-03-10 00:48:00,
2013-03-09 17:53:00,49.5,35.8,30.07,WNW,302,0.0,2.0,59,0.00,,---,0.07,VWS V14.01,2013-03-10 00:53:00,
2013-03-09 17:58:00,49.4,36.1,30.07,North,1,0.0,2.0,60,0.00,,---,0.07,VWS V14.01,2013-03-10 00:58:00,
2013-03-09 18:03:00,49.3,36.0,30.07,NW,321,0.0,0.0,60,0.00,,---,0.07,VWS V14.01,2013-03-10 01:03:00,
2013-03-09 18:09:00,49.2,35.9,30.07,NW,319,1.0,2.0,60,0.00,,---,0.07,VWS V14.01,2013-03-10 01:09:00,
2013-03-09 18:14:00,49.0,35.7,30.07,NNW,330,1.0,3.0,60,0.00,,---,0.07,VWS V14.01,2013-03-10 01:14:00,
2013-03-09 18:19:00,48.9,36.1,30.07,North,356,2.0,4.0,61,0.00,,---,0.07,VWS V14.01,2013-03-10 01:19:00,
2013-03-09 18:24:00,48.7,35.9,30.07,North,4,0.0,4.0,61,0.00,,---,0.07,VWS V14.01,2013-03-10 01:24:00,
2013-03-09 18:29:00,48.7,35.9,30.07,North,1,0.0,4.0,61,0.00,,---,0.07,VWS V14.01,2013-03-10 01:29:00,
2013-03-09 18:34:00,48.5,36.1,30.08,North,7,0.0,0.0,62,0.00,,---,0.07,VWS V14.01,2013-03-10 01:34:00,
2013-03-09 18:39:00,48.5,36.1,30.08,NW,311,0.0,0.0,62,0.00,,---,0.07,VWS V14.01,2013-03-10 01:39:00,
2013-03-09 18:44:00,48.4,36.0,30.08,NNW,344,1.0,2.0,62,0.00,,---,0.07,VWS V14.01,2013-03-10 01:44:00,
2013-03-09 18:49:00,48.4,36.0,30.08,North,11,2.0,5.0,62,0.00,,---,0.07,VWS V14.01,2013-03-10 01:49:00,
2013-03-09 18:54:00,48.2,36.6,30.08,ENE,58,3.0,5.0,64,0.00,,---,0.07,VWS V14.01,2013-03-10 01:54:00,
2013-03-09 18:59:00,48.1,36.5,30.08,NNE,32,4.0,5.0,64,0.00,,---,0.07,VWS V14.01,2013-03-10 01:59:00,
2013-03-09 19:05:00,47.9,36.7,30.09,NE,36,2.0,3.0,65,0.00,,---,0.07,VWS V14.01,2013-03-10 02:05:00,
2013-03-09 19:10:00,47.9,36.7,30.09,NNE,18,1.0,3.0,65,0.00,,---,0.07,VWS V14.01,2013-03-10 02:10:00,
2013-03-09 19:15:00,47.8,36.6,30.09,NE,36,5.0,6.0,65,0.00,,---,0.07,VWS V14.01,2013-03-10 02:15:00,
2013-03-09 19:20:00,47.7,36.5,30.09,NNW,341,3.0,6.0,65,0.00,,---,0.07,VWS V14.01,2013-03-10 02:20:00,
2013-03-09 19:25:00,47.6,36.0,30.09,NE,39,2.0,6.0,64,0.00,,---,0.07,VWS V14.01,2013-03-10 02:25:00,
2013-03-09 19:30:00,47.6,36.4,30.09,NE,39,2.0,6.0,65,0.00,,---,0.07,VWS V14.01,2013-03-10 02:30:00,
2013-03-09 19:35:00,47.5,37.1,30.09,NE,47,2.0,5.0,67,0.00,,---,0.07,VWS V14.01,2013-03-10 02:35:00,
2013-03-09 19:40:00,47.4,37.4,30.10,NE,47,3.0,5.0,68,0.00,,---,0.07,VWS V14.01,2013-03-10 02:40:00,
2013-03-09 19:45:00,47.3,37.3,30.09,North,355,2.0,5.0,68,0.00,,---,0.07,VWS V14.01,2013-03-10 02:45:00,
2013-03-09 19:50:00,47.2,37.6,30.10,NE,51,1.0,5.0,69,0.00,,---,0.07,VWS V14.01,2013-03-10 02:50:00,
2013-03-09 19:55:00,47.1,37.1,30.10,NE,51,0.0,5.0,68,0.00,,---,0.07,VWS V14.01,2013-03-10 02:55:00,
2013-03-09 20:00:00,47.1,37.1,30.10,NNE,29,2.0,5.0,68,0.00,,---,0.07,VWS V14.01,2013-03-10 03:00:00,
2013-03-09 20:05:00,47.1,37.1,30.10,NNE,33,0.0,0.0,68,0.00,,---,0.07,VWS V14.01,2013-03-10 03:05:00,
2013-03-09 20:10:00,47.1,37.1,30.10,NNE,23,4.0,4.0,68,0.00,,---,0.07,VWS V14.01,2013-03-10 03:10:00,
2013-03-09 20:15:00,47.1,37.5,30.10,NNE,25,2.0,4.0,69,0.00,,---,0.07,VWS V14.01,2013-03-10 03:15:00,
2013-03-09 20:20:00,47.0,37.4,30.10,NE,53,3.0,6.0,69,0.00,,---,0.07,VWS V14.01,2013-03-10 03:20:00,
2013-03-09 20:25:00,47.0,37.4,30.10,NE,34,3.0,6.0,69,0.00,,---,0.07,VWS V14.01,2013-03-10 03:25:00,
2013-03-09 20:30:00,46.9,37.3,30.10,NNE,13,0.0,6.0,69,0.00,,---,0.07,VWS V14.01,2013-03-10 03:30:00,
2013-03-09 20:35:00,46.8,37.5,30.10,NNE,18,0.0,0.0,70,0.00,,---,0.07,VWS V14.01,2013-03-10 03:35:00,
2013-03-09 20:41:00,46.7,37.1,30.10,NE,40,0.0,0.0,69,0.00,,---,0.07,VWS V14.01,2013-03-10 03:41:00,
2013-03-09 20:46:00,46.7,36.3,30.10,ENE,71,0.0,0.0,67,0.00,,---,0.07,VWS V14.01,2013-03-10 03:46:00,
2013-03-09 20:51:00,46.5,36.9,30.10,NE,56,2.0,2.0,69,0.00,,---,0.07,VWS V14.01,2013-03-10 03:51:00,
2013-03-09 20:56:00,46.2,37.0,30.10,NE,40,0.0,3.0,70,0.00,,---,0.07,VWS V14.01,2013-03-10 03:56:00,
2013-03-09 21:01:00,45.9,37.0,30.10,North,8,2.0,4.0,71,0.00,,---,0.07,VWS V14.01,2013-03-10 04:01:00,
2013-03-09 21:06:00,45.7,36.8,30.10,NNE,33,0.0,2.0,71,0.00,,---,0.07,VWS V14.01,2013-03-10 04:06:00,
2013-03-09 21:11:00,45.6,36.8,30.10,NNE,14,0.0,2.0,71,0.00,,---,0.07,VWS V14.01,2013-03-10 04:11:00,
2013-03-09 21:16:00,45.3,36.8,30.10,NNE,26,0.0,2.0,72,0.00,,---,0.07,VWS V14.01,2013-03-10 04:16:00,
2013-03-09 21:21:00,45.0,36.5,30.10,NNE,26,0.0,2.0,72,0.00,,---,0.07,VWS V14.01,2013-03-10 04:21:00,
2013-03-09 21:26:00,44.7,36.2,30.10,NNE,28,0.0,2.0,72,0.00,,---,0.07,VWS V14.01,2013-03-10 04:26:00,
2013-03-09 21:31:00,44.5,36.4,30.10,NNE,13,0.0,3.0,73,0.00,,---,0.07,VWS V14.01,2013-03-10 04:31:00,
2013-03-09 21:36:00,44.6,35.8,30.10,NE,42,0.0,4.0,71,0.00,,---,0.07,VWS V14.01,2013-03-10 04:36:00,
2013-03-09 21:41:00,44.8,35.6,30.10,NNW,345,0.0,4.0,70,0.00,,---,0.07,VWS V14.01,2013-03-10 04:41:00,
2013-03-09 21:46:00,44.6,35.8,30.10,North,5,0.0,4.0,71,0.00,,---,0.07,VWS V14.01,2013-03-10 04:46:00,
2013-03-09 21:52:00,44.4,36.3,30.10,NNE,13,0.0,4.0,73,0.00,,---,0.07,VWS V14.01,2013-03-10 04:52:00,
2013-03-09 21:57:00,44.3,35.9,30.10,NNE,13,0.0,4.0,72,0.00,,---,0.07,VWS V14.01,2013-03-10 04:57:00,
2013-03-09 22:00:00,44.4,36.0,30.10,NNE,30,0.0,4.0,72,0.00,,---,0.07,VWS V14.01,2013-03-10 05:00:00,
2013-03-09 22:01:00,44.3,35.9,30.10,NNE,28,0.0,4.0,72,0.00,,---,0.07,VWS V14.01,2013-03-10 05:01:00,
2013-03-09 22:06:00,44.3,35.9,30.10,NNE,14,0.0,0.0,72,0.00,,---,0.07,VWS V14.01,2013-03-10 05:06:00,
2013-03-09 22:11:00,44.3,35.9,30.10,North,356,0.0,0.0,72,0.00,,---,0.07,VWS V14.01,2013-03-10 05:11:00,
2013-03-09 22:16:00,44.3,35.9,30.11,North,351,1.0,2.0,72,0.00,,---,0.07,VWS V14.01,2013-03-10 05:16:00,
2013-03-09 22:21:00,44.5,36.0,30.11,NNE,22,2.0,4.0,72,0.00,,---,0.07,VWS V14.01,2013-03-10 05:21:00,
2013-03-09 22:26:00,44.6,36.2,30.11,NW,319,0.0,4.0,72,0.00,,---,0.07,VWS V14.01,2013-03-10 05:26:00,
2013-03-09 22:31:00,44.7,36.2,30.11,NNE,12,1.0,4.0,72,0.00,,---,0.07,VWS V14.01,2013-03-10 05:31:00,
2013-03-09 22:36:00,44.8,36.3,30.11,NNW,335,0.0,2.0,72,0.00,,---,0.07,VWS V14.01,2013-03-10 05:36:00,
2013-03-09 22:41:00,44.9,36.1,30.11,North,359,0.0,2.0,71,0.00,,---,0.07,VWS V14.01,2013-03-10 05:41:00,
2013-03-09 22:46:00,45.2,36.4,30.11,NNE,29,0.0,2.0,71,0.00,,---,0.07,VWS V14.01,2013-03-10 05:46:00,
2013-03-09 22:51:00,45.3,36.5,30.11,NNE,12,0.0,2.0,71,0.00,,---,0.07,VWS V14.01,2013-03-10 05:51:00,
2013-03-09 22:56:00,45.3,36.5,30.11,NNE,32,2.0,3.0,71,0.00,,---,0.07,VWS V14.01,2013-03-10 05:56:00,
2013-03-09 23:01:00,45.4,36.6,30.11,NNE,19,0.0,3.0,71,0.00,,---,0.07,VWS V14.01,2013-03-10 06:01:00,
2013-03-09 23:06:00,45.5,36.7,30.11,NNE,21,2.0,3.0,71,0.00,,---,0.07,VWS V14.01,2013-03-10 06:06:00,
2013-03-09 23:11:00,45.5,36.7,30.11,NNE,18,0.0,3.0,71,0.00,,---,0.07,VWS V14.01,2013-03-10 06:11:00,
2013-03-09 23:17:00,45.4,36.9,30.10,NNE,13,0.0,3.0,72,0.00,,---,0.07,VWS V14.01,2013-03-10 06:17:00,
2013-03-09 23:22:00,45.3,36.8,30.10,North,6,0.0,3.0,72,0.00,,---,0.07,VWS V14.01,2013-03-10 06:22:00,
2013-03-09 23:27:00,45.5,36.7,30.10,NNE,19,0.0,3.0,71,0.00,,---,0.07,VWS V14.01,2013-03-10 06:27:00,
2013-03-09 23:32:00,45.6,36.8,30.10,NNE,25,2.0,3.0,71,0.00,,---,0.07,VWS V14.01,2013-03-10 06:32:00,
2013-03-09 23:37:00,45.7,36.5,30.10,NE,49,0.0,3.0,70,0.00,,---,0.07,VWS V14.01,2013-03-10 06:37:00,
2013-03-09 23:42:00,45.7,36.5,30.10,North,8,0.0,3.0,70,0.00,,---,0.07,VWS V14.01,2013-03-10 06:42:00,
2013-03-09 23:47:00,45.6,36.8,30.11,NNE,26,0.0,3.0,71,0.00,,---,0.07,VWS V14.01,2013-03-10 06:47:00,
2013-03-09 23:52:00,45.6,37.1,30.11,NNE,26,0.0,3.0,72,0.00,,---,0.07,VWS V14.01,2013-03-10 06:52:00,
2013-03-09 23:57:00,45.5,37.0,30.10,NNE,27,0.0,3.0,72,0.00,,---,0.07,VWS V14.01,2013-03-10 06:57:00,